Santa Rosa — A8ZS7 — position and weather

sailwx.info

Track history (hours):
 
Tides and Currents Weather Stations Pressure Air Temp Water Temp Dewpoint Dewpoint Depression Visibility Wind Speed Wind Dir Waves Ship Positions

Santa Rosa

Last reported at 2015-Jan-28 11:24 UTC. Time now 2015-Jan-28 12:14 UTC.
Position N 22°27' E 113°53'.

Length 300 m; draft 10.6 m.

Type: Ship (hazmat cat D). MMSI: 636092266.

Date/timePositionNaut miles runAvg speedWind from/ knotsBaromVisibWave heightAir tempDewpointWater temp
2015-Jan-28 11:24N 22°27' E 113°53'0 0.0
2015-Jan-28 10:12N 22°27' E 113°53'0 0.0
2015-Jan-28 09:33N 22°27' E 113°53'0 0.0
2015-Jan-28 08:33N 22°27' E 113°53'0 0.0
2015-Jan-28 07:33N 22°27' E 113°53'0 0.0
2015-Jan-28 06:33N 22°27' E 113°53'0 0.0
2015-Jan-28 05:33N 22°27' E 113°53'0 0.0
2015-Jan-28 04:30N 22°27' E 113°53'0 0.0
2015-Jan-28 03:24N 22°27' E 113°53'0 0.0
2015-Jan-28 02:30N 22°27' E 113°53'0 0.0
2015-Jan-28 01:30N 22°27' E 113°53'0 0.0
2015-Jan-28 00:33N 22°27' E 113°53'0 0.0
2015-Jan-27 23:30N 22°27' E 113°53'0 0.0
2015-Jan-27 22:33N 22°27' E 113°53'0 0.0
2015-Jan-27 21:30N 22°27' E 113°53'3 2.8
2015-Jan-27 20:33N 22°24' E 113°53'19 8.3
2015-Jan-27 18:16N 22°13' E 114°10'5 6.7
2015-Jan-27 17:32N 22°09' E 114°13'10 9.9
2015-Jan-27 16:32N 22°05' E 114°23'3 0.2
2015-Jan-27 01:09N 22°07' E 114°25'15912.6
2015-Jan-26 12:31N 23°00' E 117°08'4112.8
2015-Jan-26 09:20N 23°27' E 117°41'1112.9
2015-Jan-26 08:27N 23°33' E 117°52'1112.5
2015-Jan-26 07:32N 23°42' E 117°60'1312.7
2015-Jan-26 06:33N 23°49' E 118°10'1312.6
2015-Jan-26 05:33N 23°56' E 118°22'1312.1
2015-Jan-26 04:29N 24°05' E 118°33'2311.9
2015-Jan-26 02:32N 24°20' E 118°52'1311.9
2015-Jan-26 01:27N 24°27' E 119°04'1112.1
2015-Jan-26 00:32N 24°32' E 119°15'1312.9
2015-Jan-25 23:33N 24°39' E 119°26'378 9.1
2015-Jan-24 06:00N 24°00' E 126°18'   100 / 111022.810.8 0.522.3 8.821.0
2015-Jan-20 12:00N 12°42' E 151°36'   050 / 81013.810.8 27.021.527.0
Track history (hours):
 
Tides and Currents Weather Stations Pressure Air Temp Water Temp Dewpoint Dewpoint Depression Visibility Wind Speed Wind Dir Waves Ship Positions

Santa Rosa

Last reported at 2015-Jan-28 11:24 UTC. Time now 2015-Jan-28 12:14 UTC.
Position N 22°27' E 113°53'.

Length 300 m; draft 10.6 m.

Type: Ship (hazmat cat D). MMSI: 636092266.

Date/timePositionNaut miles runAvg speedWind from/ knotsBaromVisibWave heightAir tempDewpointWater temp
2015-Jan-28 11:24N 22°27' E 113°53'0 0.0
2015-Jan-28 10:12N 22°27' E 113°53'0 0.0
2015-Jan-28 09:33N 22°27' E 113°53'0 0.0
2015-Jan-28 08:33N 22°27' E 113°53'0 0.0
2015-Jan-28 07:33N 22°27' E 113°53'0 0.0
2015-Jan-28 06:33N 22°27' E 113°53'0 0.0
2015-Jan-28 05:33N 22°27' E 113°53'0 0.0
2015-Jan-28 04:30N 22°27' E 113°53'0 0.0
2015-Jan-28 03:24N 22°27' E 113°53'0 0.0
2015-Jan-28 02:30N 22°27' E 113°53'0 0.0
2015-Jan-28 01:30N 22°27' E 113°53'0 0.0
2015-Jan-28 00:33N 22°27' E 113°53'0 0.0
2015-Jan-27 23:30N 22°27' E 113°53'0 0.0
2015-Jan-27 22:33N 22°27' E 113°53'0 0.0
2015-Jan-27 21:30N 22°27' E 113°53'3 2.8
2015-Jan-27 20:33N 22°24' E 113°53'19 8.3
2015-Jan-27 18:16N 22°13' E 114°10'5 6.7
2015-Jan-27 17:32N 22°09' E 114°13'10 9.9
2015-Jan-27 16:32N 22°05' E 114°23'3 0.2
2015-Jan-27 01:09N 22°07' E 114°25'15912.6
2015-Jan-26 12:31N 23°00' E 117°08'4112.8
2015-Jan-26 09:20N 23°27' E 117°41'1112.9
2015-Jan-26 08:27N 23°33' E 117°52'1112.5
2015-Jan-26 07:32N 23°42' E 117°60'1312.7
2015-Jan-26 06:33N 23°49' E 118°10'1312.6
2015-Jan-26 05:33N 23°56' E 118°22'1312.1
2015-Jan-26 04:29N 24°05' E 118°33'2311.9
2015-Jan-26 02:32N 24°20' E 118°52'1311.9
2015-Jan-26 01:27N 24°27' E 119°04'1112.1
2015-Jan-26 00:32N 24°32' E 119°15'1312.9
2015-Jan-25 23:33N 24°39' E 119°26'378 9.1
2015-Jan-24 06:00N 24°00' E 126°18'   100 / 111022.810.8 0.522.3 8.821.0
2015-Jan-20 12:00N 12°42' E 151°36'   050 / 81013.810.8 27.021.527.0

Dump ship's entire track history